Time;durP1;ratioP1;P1;durP2;ratioP2;P2;SDS_P1;SDS_P2;PMS_P1;PMS_P2;Temp;Humidity;BMP_temperature;BMP_pressure;BME280_temperature;BME280_humidity;BME280_pressure;Samples;Min_cycle;Max_cycle;Signal;HPM_P1;HPM_P2
2023/12/12 00:00:20;;;;;;;;;;;;;;;17.45;57.51;100709.47;7390005;19;1266;-40
2023/12/12 00:02:51;;;;;;;;;;;;;;;17.80;56.89;100709.19;7391023;19;1413;-41
2023/12/12 00:05:19;;;;;;;;;;;;;;;18.25;55.94;100698.28;7390480;19;1957;-40
2023/12/12 00:07:48;;;;;;;;;;;;;;;18.44;55.58;100694.88;7389949;19;1398;-40
2023/12/12 00:10:16;;;;;;;;;;;;;;;18.10;56.04;100707.59;7390440;19;1837;-40
2023/12/12 00:12:44;;;;;;;;;;;;;;;17.79;56.37;100701.31;7390237;19;1477;-41
2023/12/12 00:15:13;;;;;;;;;;;;;;;17.60;56.87;100732.25;7390799;19;1373;-40
2023/12/12 00:17:41;;;;;;;;;;;;;;;17.50;57.18;100693.88;7390205;19;1291;-40
2023/12/12 00:20:12;;;;;;;;;;;;;;;17.42;57.24;100705.22;7389630;19;1822;-40
2023/12/12 00:22:41;;;;;;;;;;;;;;;17.40;56.91;100693.81;7390930;19;1384;-40
2023/12/12 00:25:09;;;;;;;;;;;;;;;17.74;56.82;100701.69;7397293;19;1744;-40
2023/12/12 00:27:38;;;;;;;;;;;;;;;18.39;55.45;100680.16;7398325;19;1289;-40
2023/12/12 00:30:06;;;;;;;;;;;;;;;18.60;54.74;100706.88;7395691;19;1853;-40
2023/12/12 00:32:35;;;;;;;;;;;;;;;18.26;55.23;100699.97;7398161;19;1536;-40
2023/12/12 00:35:03;;;;;;;;;;;;;;;17.88;55.84;100688.03;7396822;19;1549;-41
2023/12/12 00:37:34;;;;;;;;;;;;;;;17.67;56.36;100713.91;7396337;19;1298;-40
2023/12/12 00:40:03;;;;;;;;;;;;;;;17.53;56.67;100716.84;7399763;19;1582;-40
2023/12/12 00:42:31;;;;;;;;;;;;;;;17.47;56.52;100724.41;7398307;19;1687;-41
2023/12/12 00:44:59;;;;;;;;;;;;;;;17.44;56.76;100708.63;7397553;19;1500;-40
2023/12/12 00:47:29;;;;;;;;;;;;;;;17.49;56.65;100705.56;7397537;19;1436;-40
2023/12/12 00:49:57;;;;;;;;;;;;;;;18.03;55.47;100709.13;7395916;19;1859;-40
2023/12/12 00:52:26;;;;;;;;;;;;;;;18.35;54.95;100716.22;7397751;19;1496;-41
2023/12/12 00:54:57;;;;;;;;;;;;;;;18.29;54.84;100709.56;7395049;19;1552;-40
2023/12/12 00:57:25;;;;;;;;;;;;;;;17.94;55.34;100709.91;7397499;19;1531;-48
2023/12/12 00:59:54;;;;;;;;;;;;;;;17.68;56.29;100699.53;7397499;19;1487;-40
2023/12/12 01:02:25;;;;;;;;;;;;;;;17.52;56.44;100712.50;7398016;19;1469;-41
2023/12/12 01:04:53;;;;;;;;;;;;;;;17.44;56.59;100713.97;7398029;19;1116;-40
2023/12/12 01:07:21;;;;;;;;;;;;;;;17.41;56.46;100700.88;7398032;19;1903;-40
2023/12/12 01:09:50;;;;;;;;;;;;;;;17.74;55.97;100701.69;7396930;19;1865;-40
2023/12/12 01:12:21;;;;;;;;;;;;;;;18.16;55.00;100709.75;7396754;19;1482;-40
2023/12/12 01:14:49;;;;;;;;;;;;;;;18.47;54.52;100726.72;7396896;19;1651;-41
2023/12/12 01:17:17;;;;;;;;;;;;;;;18.15;55.02;100718.78;7397716;19;1434;-41
2023/12/12 01:19:45;;;;;;;;;;;;;;;17.77;55.87;100708.63;7397073;19;1191;-40
2023/12/12 01:22:14;;;;;;;;;;;;;;;17.59;56.26;100711.03;7396187;19;1362;-42
2023/12/12 01:24:42;;;;;;;;;;;;;;;17.48;56.56;100710.06;7395936;19;1502;-40
2023/12/12 01:27:11;;;;;;;;;;;;;;;17.49;56.45;100718.94;7397665;19;1033;-40
2023/12/12 01:29:42;;;;;;;;;;;;;;;17.97;55.38;100715.00;7393740;19;1847;-41
2023/12/12 01:32:10;;;;;;;;;;;;;;;18.34;54.59;100711.84;7396108;19;1512;-41
2023/12/12 01:34:39;;;;;;;;;;;;;;;18.31;54.39;100699.56;7395887;19;1472;-40
2023/12/12 01:37:07;;;;;;;;;;;;;;;17.91;55.03;100688.78;7395811;19;1511;-41
2023/12/12 01:39:35;;;;;;;;;;;;;;;17.65;55.68;100694.47;7396477;19;1056;-40
2023/12/12 01:42:03;;;;;;;;;;;;;;;17.50;55.93;100696.56;7392831;19;1866;-41
2023/12/12 01:44:32;;;;;;;;;;;;;;;17.43;56.04;100696.25;7394920;19;1793;-40
2023/12/12 01:47:03;;;;;;;;;;;;;;;17.44;56.30;100703.25;7395969;19;1529;-41
2023/12/12 01:49:31;;;;;;;;;;;;;;;18.04;54.88;100710.81;7394553;19;1814;-41
2023/12/12 01:52:00;;;;;;;;;;;;;;;18.39;54.15;100709.63;7394569;19;1536;-40
2023/12/12 01:54:28;;;;;;;;;;;;;;;18.26;54.18;100702.66;7396318;19;1500;-40
2023/12/12 01:56:57;;;;;;;;;;;;;;;17.86;54.74;100694.50;7396833;19;1091;-40
2023/12/12 01:59:26;;;;;;;;;;;;;;;17.60;55.54;100708.19;7396647;19;1105;-40
2023/12/12 02:01:54;;;;;;;;;;;;;;;17.50;55.85;100713.44;7394250;19;1390;-41
2023/12/12 02:04:26;;;;;;;;;;;;;;;17.46;55.77;100713.84;7396080;19;1841;-40
2023/12/12 02:06:56;;;;;;;;;;;;;;;17.79;55.37;100712.03;7395610;19;1600;-40
2023/12/12 02:09:24;;;;;;;;;;;;;;;18.32;54.17;100698.56;7396014;19;1257;-40
2023/12/12 02:11:53;;;;;;;;;;;;;;;18.51;53.85;100703.19;7391392;19;1847;-40
2023/12/12 02:14:21;;;;;;;;;;;;;;;18.11;54.39;100741.44;7395153;19;1548;-40
2023/12/12 02:16:49;;;;;;;;;;;;;;;17.76;55.00;100737.19;7395327;19;1811;-41
2023/12/12 02:19:19;;;;;;;;;;;;;;;17.58;55.39;100752.94;7393985;19;1311;-40
2023/12/12 02:21:50;;;;;;;;;;;;;;;17.49;55.70;100754.53;7394518;19;1488;-41
2023/12/12 02:24:19;;;;;;;;;;;;;;;17.39;55.58;100785.69;7396367;19;1124;-40
2023/12/12 02:26:47;;;;;;;;;;;;;;;17.39;55.66;100812.41;7396001;19;1066;-40
2023/12/12 02:29:16;;;;;;;;;;;;;;;18.00;54.69;100755.69;7394012;19;1483;-40
2023/12/12 02:31:44;;;;;;;;;;;;;;;18.64;53.30;100754.72;7392532;19;1862;-40
2023/12/12 02:34:12;;;;;;;;;;;;;;;19.29;52.10;100762.44;7394936;19;1572;-40
2023/12/12 02:36:41;;;;;;;;;;;;;;;19.72;50.77;100755.06;7394730;19;1374;-40
2023/12/12 02:39:12;;;;;;;;;;;;;;;19.81;50.66;100752.38;7394910;19;1045;-41
2023/12/12 02:41:40;;;;;;;;;;;;;;;19.92;50.53;100772.03;7393537;19;1593;-40
2023/12/12 02:44:09;;;;;;;;;;;;;;;19.81;50.70;100768.47;7394282;19;1134;-40
2023/12/12 02:46:39;;;;;;;;;;;;;;;19.77;50.79;100761.69;7392313;19;1481;-41
2023/12/12 02:49:09;;;;;;;;;;;;;;;18.99;52.17;100737.38;7393119;19;1713;-40
2023/12/12 02:51:38;;;;;;;;;;;;;;;18.45;53.25;100754.59;7391308;19;1844;-40
2023/12/12 02:54:06;;;;;;;;;;;;;;;18.13;53.67;100752.84;7393196;19;1707;-40
2023/12/12 02:56:37;;;;;;;;;;;;;;;17.92;54.15;100760.00;7393241;19;1206;-40
2023/12/12 02:59:05;;;;;;;;;;;;;;;18.04;54.52;100758.97;7391644;19;1420;-41
2023/12/12 03:01:34;;;;;;;;;;;;;;;18.95;52.57;100738.66;7393238;19;1346;-40
2023/12/12 03:04:02;;;;;;;;;;;;;;;19.84;51.13;100730.63;7391164;19;2447;-40
2023/12/12 03:06:30;;;;;;;;;;;;;;;19.91;50.65;100730.91;7393390;19;1604;-41
2023/12/12 03:08:59;;;;;;;;;;;;;;;20.08;50.39;100725.81;7393899;19;1741;-40
2023/12/12 03:11:27;;;;;;;;;;;;;;;20.10;50.07;100719.31;7393209;19;1854;-40
2023/12/12 03:13:58;;;;;;;;;;;;;;;20.03;50.49;100713.69;7393552;19;2069;-41
2023/12/12 03:16:26;;;;;;;;;;;;;;;19.93;50.73;100706.63;7393499;19;1758;-41
2023/12/12 03:18:55;;;;;;;;;;;;;;;19.79;51.07;100695.31;7392994;19;1419;-40
2023/12/12 03:21:23;;;;;;;;;;;;;;;19.88;50.83;100671.31;7392452;19;1077;-40
2023/12/12 03:23:52;;;;;;;;;;;;;;;19.95;50.97;100662.53;7393077;19;1469;-40
2023/12/12 03:26:20;;;;;;;;;;;;;;;19.96;51.01;100680.34;7392331;19;1599;-40
2023/12/12 03:28:48;;;;;;;;;;;;;;;19.96;50.83;100682.19;7392691;19;1399;-40
2023/12/12 03:31:19;;;;;;;;;;;;;;;19.98;50.81;100690.94;7391551;19;1853;-40
2023/12/12 03:33:48;;;;;;;;;;;;;;;20.04;50.98;100682.31;7393899;19;995;-40
2023/12/12 03:36:17;;;;;;;;;;;;;;;20.09;50.77;100684.53;7392419;19;1834;-40
2023/12/12 03:38:45;;;;;;;;;;;;;;;20.02;50.87;100663.66;7392383;19;1928;-41
2023/12/12 03:41:14;;;;;;;;;;;;;;;20.09;50.82;100666.59;7390275;19;1556;-40
2023/12/12 03:43:42;;;;;;;;;;;;;;;20.05;50.98;100663.38;7391595;19;1243;-40
2023/12/12 03:46:13;;;;;;;;;;;;;;;20.01;51.07;100666.47;7395025;19;1246;-40
2023/12/12 03:48:44;;;;;;;;;;;;;;;20.04;50.90;100660.84;7393661;19;1447;-41
2023/12/12 03:51:12;;;;;;;;;;;;;;;20.09;50.82;100666.59;7391790;19;1857;-40
2023/12/12 03:53:41;;;;;;;;;;;;;;;20.10;51.27;100660.25;7391644;19;1310;-40
2023/12/12 03:56:10;;;;;;;;;;;;;;;19.99;51.76;100663.09;7392994;19;1726;-41
2023/12/12 03:58:38;;;;;;;;;;;;;;;20.11;51.56;100682.56;7388542;19;1215;-41
2023/12/12 04:01:06;;;;;;;;;;;;;;;19.88;52.17;100708.91;7391438;19;1421;-41
2023/12/12 04:03:35;;;;;;;;;;;;;;;19.16;54.19;100693.00;7391127;19;1488;-44
2023/12/12 04:06:07;;;;;;;;;;;;;;;18.68;55.16;100710.59;7390297;19;1819;-41
2023/12/12 04:08:35;;;;;;;;;;;;;;;18.52;55.85;100712.91;7391177;19;1256;-41
2023/12/12 04:11:03;;;;;;;;;;;;;;;18.74;55.65;100716.38;7388901;19;1834;-41
2023/12/12 04:13:32;;;;;;;;;;;;;;;19.01;54.99;100711.31;7391748;19;1111;-41
2023/12/12 04:16:00;;;;;;;;;;;;;;;19.23;54.46;100704.84;7391787;19;1952;-40
2023/12/12 04:18:28;;;;;;;;;;;;;;;19.30;54.23;100697.13;7391980;19;1503;-41
2023/12/12 04:20:57;;;;;;;;;;;;;;;19.24;54.65;100711.94;7391156;19;1765;-41
2023/12/12 04:23:25;;;;;;;;;;;;;;;19.07;54.89;100700.03;7392144;19;1714;-41
2023/12/12 04:25:53;;;;;;;;;;;;;;;19.13;54.89;100713.88;7391324;19;1726;-41
2023/12/12 04:28:22;;;;;;;;;;;;;;;19.05;55.10;100696.63;7391976;19;1517;-41
2023/12/12 04:30:50;;;;;;;;;;;;;;;19.12;55.03;100701.44;7389629;19;1847;-41
2023/12/12 04:33:18;;;;;;;;;;;;;;;19.08;55.07;100707.09;7391063;19;1490;-41
2023/12/12 04:35:46;;;;;;;;;;;;;;;19.09;55.28;100707.94;7389548;19;1574;-41
2023/12/12 04:38:15;;;;;;;;;;;;;;;19.06;55.50;100703.72;7386667;19;1434;-41
2023/12/12 04:40:46;;;;;;;;;;;;;;;19.16;55.16;100698.38;7388539;19;1268;-45
2023/12/12 04:43:14;;;;;;;;;;;;;;;19.18;54.96;100700.88;7391050;19;1716;-41
2023/12/12 04:45:42;;;;;;;;;;;;;;;19.17;55.07;100699.22;7389110;19;1580;-41
2023/12/12 04:48:11;;;;;;;;;;;;;;;19.24;54.82;100692.31;7390555;19;1381;-41
2023/12/12 04:50:39;;;;;;;;;;;;;;;19.27;54.96;100702.75;7389840;19;1893;-40
2023/12/12 04:53:07;;;;;;;;;;;;;;;19.28;55.10;100691.06;7388977;19;1408;-41
2023/12/12 04:55:35;;;;;;;;;;;;;;;19.32;55.23;100680.88;7389358;19;1680;-41
2023/12/12 04:58:06;;;;;;;;;;;;;;;19.20;54.36;100677.47;7387855;19;1508;-41
2023/12/12 05:00:35;;;;;;;;;;;;;;;19.20;54.71;100683.72;7389907;19;1515;-41
2023/12/12 05:03:03;;;;;;;;;;;;;;;19.24;54.56;100685.13;7390900;19;1409;-40
2023/12/12 05:05:31;;;;;;;;;;;;;;;19.25;54.59;100702.88;7390204;19;1838;-41
2023/12/12 05:07:59;;;;;;;;;;;;;;;19.28;54.51;100707.16;7389208;19;1821;-41
2023/12/12 05:10:28;;;;;;;;;;;;;;;19.24;54.96;100724.50;7392932;19;1266;-40
2023/12/12 05:12:56;;;;;;;;;;;;;;;19.15;55.61;100691.31;7397592;19;1491;-43
2023/12/12 05:15:27;;;;;;;;;;;;;;;19.01;55.82;100689.03;7393843;19;1489;-41
2023/12/12 05:17:55;;;;;;;;;;;;;;;18.92;56.13;100712.16;7395460;19;1409;-41
2023/12/12 05:20:24;;;;;;;;;;;;;;;18.84;56.07;100709.28;7394102;19;1255;-40
2023/12/12 05:22:52;;;;;;;;;;;;;;;18.86;56.36;100708.16;7395032;19;1524;-41
2023/12/12 05:25:20;;;;;;;;;;;;;;;18.82;56.31;100711.22;7398474;19;1931;-41
2023/12/12 05:27:49;;;;;;;;;;;;;;;18.86;56.42;100718.88;7398244;19;1221;-41
2023/12/12 05:30:17;;;;;;;;;;;;;;;18.78;56.55;100725.84;7396951;19;1607;-41
2023/12/12 05:32:48;;;;;;;;;;;;;;;18.61;56.49;100671.94;7394260;19;1874;-41
2023/12/12 05:35:16;;;;;;;;;;;;;;;18.81;56.48;100707.72;7397947;19;1294;-41
2023/12/12 05:37:45;;;;;;;;;;;;;;;18.88;56.32;100713.41;7398112;19;1614;-41
2023/12/12 05:40:14;;;;;;;;;;;;;;;18.89;56.27;100701.69;7400438;19;1240;-40
2023/12/12 05:42:43;;;;;;;;;;;;;;;18.90;56.34;100691.81;7399052;19;1261;-41
2023/12/12 05:45:11;;;;;;;;;;;;;;;18.98;56.34;100708.91;7400348;19;1544;-41
2023/12/12 05:47:40;;;;;;;;;;;;;;;18.88;56.43;100694.66;7400109;19;1267;-40
2023/12/12 05:50:13;;;;;;;;;;;;;;;18.93;56.48;100700.41;7401186;19;1150;-41
2023/12/12 05:52:41;;;;;;;;;;;;;;;18.56;57.42;100716.19;7398748;19;1858;-41
2023/12/12 05:55:10;;;;;;;;;;;;;;;18.19;58.22;100700.63;7400042;19;1503;-41
2023/12/12 05:57:40;;;;;;;;;;;;;;;17.91;57.87;100707.50;7397710;19;1343;-41
2023/12/12 06:00:09;;;;;;;;;;;;;;;17.59;58.22;100700.31;7395480;19;1514;-41
2023/12/12 06:02:37;;;;;;;;;;;;;;;17.47;57.98;100705.69;7396264;19;1810;-40
2023/12/12 06:05:07;;;;;;;;;;;;;;;17.52;57.98;100691.09;7389978;19;1651;-40
2023/12/12 06:07:39;;;;;;;;;;;;;;;18.12;57.60;100702.13;7393051;19;1642;-41
2023/12/12 06:10:08;;;;;;;;;;;;;;;18.77;55.67;100698.22;7393421;19;1568;-41
2023/12/12 06:12:36;;;;;;;;;;;;;;;19.04;55.03;100694.97;7390814;19;1865;-41
2023/12/12 06:15:07;;;;;;;;;;;;;;;19.23;54.84;100698.66;7391644;19;1306;-41
2023/12/12 06:17:35;;;;;;;;;;;;;;;19.24;54.51;100706.56;7391047;19;1246;-41
2023/12/12 06:20:04;;;;;;;;;;;;;;;19.12;54.83;100709.50;7390661;19;1544;-41
2023/12/12 06:22:34;;;;;;;;;;;;;;;19.04;54.95;100700.31;7388327;19;1611;-41
2023/12/12 06:25:06;;;;;;;;;;;;;;;19.06;55.05;100702.88;7393662;19;1485;-40
2023/12/12 06:27:34;;;;;;;;;;;;;;;19.02;55.34;100721.06;7395101;19;1605;-41
2023/12/12 06:30:03;;;;;;;;;;;;;;;18.91;55.34;100715.78;7394960;19;1314;-41
2023/12/12 06:32:31;;;;;;;;;;;;;;;18.84;54.98;100726.22;7390642;19;1841;-43
2023/12/12 06:34:59;;;;;;;;;;;;;;;18.82;55.25;100721.94;7385615;19;1589;-43
2023/12/12 06:37:28;;;;;;;;;;;;;;;18.80;55.36;100735.50;7372049;19;2435;-43
2023/12/12 06:39:58;;;;;;;;;;;;;;;18.79;55.20;100720.41;7386623;19;1188;-42
2023/12/12 06:42:28;;;;;;;;;;;;;;;18.75;55.42;100721.63;7390662;19;1718;-41
2023/12/12 06:44:57;;;;;;;;;;;;;;;18.67;55.44;100730.31;7388686;19;1224;-41
2023/12/12 06:47:25;;;;;;;;;;;;;;;18.66;55.64;100720.63;7392085;19;1475;-41
2023/12/12 06:49:54;;;;;;;;;;;;;;;18.69;55.56;100714.97;7390684;19;1219;-41
2023/12/12 06:52:22;;;;;;;;;;;;;;;18.71;55.75;100735.44;7391926;19;1847;-41
2023/12/12 06:54:51;;;;;;;;;;;;;;;18.76;55.60;100727.81;7391775;19;1247;-41
2023/12/12 06:57:19;;;;;;;;;;;;;;;18.77;55.74;100724.16;7393116;19;1031;-41
2023/12/12 06:59:50;;;;;;;;;;;;;;;18.78;55.84;100726.72;7391356;19;1485;-41
2023/12/12 07:02:18;;;;;;;;;;;;;;;18.75;55.73;100713.59;7391419;19;1384;-41
2023/12/12 07:04:47;;;;;;;;;;;;;;;18.77;55.68;100718.81;7390868;19;1456;-41
2023/12/12 07:07:15;;;;;;;;;;;;;;;18.74;55.82;100719.06;7391571;19;1441;-41
2023/12/12 07:09:44;;;;;;;;;;;;;;;18.79;55.95;100711.50;7392945;19;1373;-41
2023/12/12 07:12:12;;;;;;;;;;;;;;;18.82;55.63;100727.31;7390553;19;1841;-41
2023/12/12 07:14:41;;;;;;;;;;;;;;;18.82;55.78;100721.94;7390347;19;1441;-41
2023/12/12 07:17:11;;;;;;;;;;;;;;;18.80;55.81;100724.78;7392497;19;1145;-41
2023/12/12 07:19:40;;;;;;;;;;;;;;;18.84;55.76;100730.69;7390180;19;1397;-41
2023/12/12 07:22:09;;;;;;;;;;;;;;;18.82;55.72;100728.19;7389069;19;1230;-41
2023/12/12 07:24:37;;;;;;;;;;;;;;;18.74;55.89;100719.06;7392809;19;1402;-41
2023/12/12 07:27:06;;;;;;;;;;;;;;;18.85;55.78;100721.69;7389679;19;1440;-41
2023/12/12 07:29:34;;;;;;;;;;;;;;;18.83;55.90;100712.94;7391070;19;1619;-41
2023/12/12 07:32:03;;;;;;;;;;;;;;;18.86;55.86;100707.28;7390124;19;1856;-41
2023/12/12 07:34:33;;;;;;;;;;;;;;;18.88;55.73;100721.44;7390002;19;1553;-41
2023/12/12 07:37:02;;;;;;;;;;;;;;;18.87;55.87;100725.09;7376191;19;1509;-41
2023/12/12 07:39:30;;;;;;;;;;;;;;;18.85;55.75;100719.84;7392240;19;1146;-41
2023/12/12 07:41:59;;;;;;;;;;;;;;;18.86;55.89;100726.94;7390015;19;1257;-41
2023/12/12 07:44:27;;;;;;;;;;;;;;;18.90;55.91;100724.84;7390223;19;1191;-41
2023/12/12 07:46:56;;;;;;;;;;;;;;;18.85;55.96;100719.00;7389822;19;1520;-40
2023/12/12 07:49:24;;;;;;;;;;;;;;;18.92;55.89;100738.94;7390558;19;1311;-41
2023/12/12 07:51:55;;;;;;;;;;;;;;;18.90;55.67;100727.50;7389500;19;1841;-41
2023/12/12 07:54:23;;;;;;;;;;;;;;;18.93;55.77;100729.06;7390419;19;1861;-41
2023/12/12 07:56:53;;;;;;;;;;;;;;;18.87;56.03;100730.44;7389061;19;1261;-41
2023/12/12 07:59:21;;;;;;;;;;;;;;;18.99;55.66;100723.16;7390101;19;1932;-41
2023/12/12 08:01:49;;;;;;;;;;;;;;;18.93;55.84;100729.91;7390640;19;1538;-41
2023/12/12 08:04:18;;;;;;;;;;;;;;;18.93;55.85;100729.91;7389473;19;1234;-41
2023/12/12 08:06:46;;;;;;;;;;;;;;;18.95;55.89;100738.66;7387621;19;1179;-42
2023/12/12 08:09:17;;;;;;;;;;;;;;;19.00;55.80;100751.63;7389089;19;1148;-41
2023/12/12 08:11:45;;;;;;;;;;;;;;;18.98;55.88;100737.53;7388446;19;1869;-41
2023/12/12 08:14:14;;;;;;;;;;;;;;;19.03;55.90;100743.34;7389354;19;1213;-41
2023/12/12 08:16:42;;;;;;;;;;;;;;;19.06;55.82;100733.19;7389010;19;1203;-41
2023/12/12 08:19:10;;;;;;;;;;;;;;;19.11;55.73;100742.66;7388897;19;1231;-41
2023/12/12 08:21:40;;;;;;;;;;;;;;;19.02;55.89;100731.78;7390677;19;1027;-42
2023/12/12 08:24:08;;;;;;;;;;;;;;;19.03;56.00;100721.88;7387727;19;1841;-41
2023/12/12 08:26:44;;;;;;;;;;;;;;;19.02;55.97;100734.44;7388178;19;1190;-41
2023/12/12 08:29:13;;;;;;;;;;;;;;;19.08;55.69;100733.91;7388533;19;1352;-41
2023/12/12 08:31:42;;;;;;;;;;;;;;;19.04;55.73;100732.47;7388151;19;1851;-41
2023/12/12 08:34:11;;;;;;;;;;;;;;;19.06;55.79;100729.69;7389272;19;1590;-41
2023/12/12 08:36:40;;;;;;;;;;;;;;;19.08;55.93;100733.91;7372649;19;1369;-41
2023/12/12 08:39:08;;;;;;;;;;;;;;;19.04;56.11;100729.81;7389809;19;1216;-41
2023/12/12 08:41:40;;;;;;;;;;;;;;;19.12;56.09;100723.75;7387733;19;1515;-41
2023/12/12 08:44:11;;;;;;;;;;;;;;;19.11;55.87;100734.63;7390372;19;1263;-41
2023/12/12 08:46:41;;;;;;;;;;;;;;;19.12;55.69;100721.09;7394085;19;1481;-41
2023/12/12 08:49:09;;;;;;;;;;;;;;;19.11;55.85;100735.44;7397494;19;1555;-41
2023/12/12 08:51:39;;;;;;;;;;;;;;;19.17;55.78;100728.69;7394698;19;1187;-41
2023/12/12 08:54:07;;;;;;;;;;;;;;;19.12;56.03;100730.94;7393581;19;1849;-41
2023/12/12 08:56:36;;;;;;;;;;;;;;;19.20;55.82;100723.03;7391668;19;1315;-41
2023/12/12 08:59:05;;;;;;;;;;;;;;;19.19;55.73;100726.72;7395279;19;1216;-41
2023/12/12 09:01:36;;;;;;;;;;;;;;;18.99;56.41;100733.88;7392948;19;1575;-41
2023/12/12 09:04:04;;;;;;;;;;;;;;;18.54;57.38;100713.63;7396190;19;1374;-43
2023/12/12 09:06:32;;;;;;;;;;;;;;;18.24;58.19;100723.34;7391997;19;1610;-43
2023/12/12 09:09:01;;;;;;;;;;;;;;;18.03;58.70;100728.69;7396023;19;1505;-43
2023/12/12 09:11:30;;;;;;;;;;;;;;;17.93;58.87;100718.91;7397331;19;1627;-43
2023/12/12 09:13:59;;;;;;;;;;;;;;;18.02;58.86;100702.06;7394647;19;1849;-43
2023/12/12 09:16:27;;;;;;;;;;;;;;;18.52;57.71;100709.41;7396472;19;1833;-43
2023/12/12 09:18:58;;;;;;;;;;;;;;;18.91;56.79;100705.06;7394737;19;1815;-43
2023/12/12 09:21:27;;;;;;;;;;;;;;;19.02;56.38;100710.34;7394983;19;1576;-43
2023/12/12 09:23:55;;;;;;;;;;;;;;;19.14;56.05;100713.75;7396527;19;1742;-42
2023/12/12 09:26:23;;;;;;;;;;;;;;;19.10;56.30;100714.13;7391616;19;1581;-43
2023/12/12 09:28:52;;;;;;;;;;;;;;;18.64;57.25;100697.59;7387101;19;1867;-48
2023/12/12 09:31:26;;;;;;;;;;;;;;;18.35;57.99;100714.38;7389049;19;1450;-41
2023/12/12 09:33:58;;;;;;;;;;;;;;;18.02;58.56;100704.75;7382509;19;1857;-41
2023/12/12 09:36:26;;;;;;;;;;;;;;;17.88;58.88;100709.44;7390246;19;1128;-41
2023/12/12 09:38:54;;;;;;;;;;;;;;;18.16;58.57;100701.72;7373936;19;1843;-41
2023/12/12 09:41:23;;;;;;;;;;;;;;;18.60;57.45;100714.94;7387518;19;1907;-41
2023/12/12 09:43:52;;;;;;;;;;;;;;;18.89;56.51;100707.03;7393319;19;1664;-41
2023/12/12 09:46:21;;;;;;;;;;;;;;;18.92;56.33;100720.19;7397004;19;1674;-41
2023/12/12 09:48:50;;;;;;;;;;;;;;;18.99;56.14;100712.44;7397395;19;1129;-41
2023/12/12 09:51:21;;;;;;;;;;;;;;;18.97;56.32;100715.25;7395208;19;1856;-41
2023/12/12 09:53:49;;;;;;;;;;;;;;;19.01;56.17;100699.75;7390718;19;1844;-41
2023/12/12 09:56:18;;;;;;;;;;;;;;;18.79;56.54;100695.41;7389771;19;1794;-41
2023/12/12 09:58:48;;;;;;;;;;;;;;;18.41;57.48;100705.81;7393153;19;1652;-41
2023/12/12 10:01:16;;;;;;;;;;;;;;;18.10;58.28;100715.63;7392954;19;1414;-41
2023/12/12 10:03:45;;;;;;;;;;;;;;;17.84;58.73;100696.44;7393136;19;1207;-41
2023/12/12 10:06:13;;;;;;;;;;;;;;;18.01;58.61;100692.34;7392169;19;1978;-41
2023/12/12 10:08:44;;;;;;;;;;;;;;;18.39;57.54;100693.56;7394954;19;1553;-41
2023/12/12 10:11:14;;;;;;;;;;;;;;;18.73;56.79;100712.03;7394856;19;1749;-41
2023/12/12 10:13:50;;;;;;;;;;;;;;;18.80;56.77;100702.50;7394390;19;1853;-41
2023/12/12 10:16:19;;;;;;;;;;;;;;;18.94;56.34;100712.84;7395438;19;1481;-41
2023/12/12 10:18:47;;;;;;;;;;;;;;;18.90;56.47;100700.72;7396455;19;1056;-41
2023/12/12 10:21:19;;;;;;;;;;;;;;;18.98;55.93;100716.94;7396172;19;2104;-41
2023/12/12 10:23:51;;;;;;;;;;;;;;;18.96;56.18;100708.19;7396045;19;1493;-41
2023/12/12 10:26:25;;;;;;;;;;;;;;;19.00;56.06;100698.91;7395744;19;1811;-41
2023/12/12 10:28:54;;;;;;;;;;;;;;;18.98;55.93;100703.56;7394583;19;1516;-41
2023/12/12 10:31:22;;;;;;;;;;;;;;;19.02;56.13;100693.38;7396073;19;1822;-41
2023/12/12 10:33:51;;;;;;;;;;;;;;;18.66;56.95;100711.69;7395063;19;1846;-41
2023/12/12 10:36:19;;;;;;;;;;;;;;;18.25;57.72;100700.94;7396437;19;1813;-41
2023/12/12 10:38:50;;;;;;;;;;;;;;;17.96;58.45;100686.53;7380301;19;1991;-41
2023/12/12 10:41:19;;;;;;;;;;;;;;;17.82;58.61;100693.03;7392143;19;1690;-41
2023/12/12 10:43:48;;;;;;;;;;;;;;;18.14;58.19;100694.81;7395905;19;1540;-41
2023/12/12 10:46:17;;;;;;;;;;;;;;;18.58;57.20;100699.00;7396248;19;1018;-41
2023/12/12 10:48:47;;;;;;;;;;;;;;;18.91;56.40;100693.50;7396031;19;1012;-41
2023/12/12 10:51:16;;;;;;;;;;;;;;;18.95;56.09;100686.91;7394595;19;1895;-41
2023/12/12 10:53:45;;;;;;;;;;;;;;;18.99;56.00;100681.13;7393661;19;1845;-41
2023/12/12 10:56:17;;;;;;;;;;;;;;;19.02;55.82;100688.03;7394964;19;1551;-41
2023/12/12 10:58:46;;;;;;;;;;;;;;;19.00;55.98;100672.09;7394740;19;1396;-41
2023/12/12 11:01:16;;;;;;;;;;;;;;;18.65;56.75;100665.34;7394754;19;1557;-41
2023/12/12 11:03:44;;;;;;;;;;;;;;;18.41;57.38;100680.88;7394034;19;1444;-41
2023/12/12 11:06:12;;;;;;;;;;;;;;;18.17;58.07;100667.81;7393320;19;1262;-41
2023/12/12 11:08:42;;;;;;;;;;;;;;;18.03;58.19;100659.13;7391971;19;1735;-41
2023/12/12 11:11:12;;;;;;;;;;;;;;;18.35;57.63;100678.75;7394013;19;1267;-41
2023/12/12 11:13:45;;;;;;;;;;;;;;;18.58;57.39;100680.25;7393688;19;1881;-41
2023/12/12 11:16:14;;;;;;;;;;;;;;;18.98;56.22;100690.16;7395566;19;970;-41
2023/12/12 11:18:44;;;;;;;;;;;;;;;19.12;55.74;100675.50;7394762;19;2057;-41
2023/12/12 11:21:40;;;;;;;;;;;;;;;18.74;56.60;100671.72;7393599;19;1528;-41
2023/12/12 11:24:09;;;;;;;;;;;;;;;18.40;57.55;100668.47;7395054;19;2425;-41
2023/12/12 11:26:37;;;;;;;;;;;;;;;18.22;57.79;100654.84;7394453;19;1833;-41
2023/12/12 11:29:10;;;;;;;;;;;;;;;18.11;58.35;100671.84;7389925;19;1924;-41
2023/12/12 11:31:38;;;;;;;;;;;;;;;18.59;57.03;100665.03;7393383;19;1197;-41
2023/12/12 11:34:08;;;;;;;;;;;;;;;19.13;55.66;100662.94;7392470;19;1854;-41
2023/12/12 11:36:53;;;;;;;;;;;;;;;19.28;55.36;100642.81;7394387;19;1085;-41
2023/12/12 11:39:34;;;;;;;;;;;;;;;18.82;56.50;100642.44;7378364;19;1222;-41
2023/12/12 11:42:05;;;;;;;;;;;;;;;18.48;57.20;100655.25;7391963;19;1653;-41
2023/12/12 11:44:49;;;;;;;;;;;;;;;18.24;57.82;100645.72;7392588;19;966;-41
2023/12/12 11:47:18;;;;;;;;;;;;;;;18.09;58.31;100661.28;7393765;19;1112;-41
2023/12/12 11:49:47;;;;;;;;;;;;;;;18.52;57.44;100672.75;7392537;19;1507;-41
2023/12/12 11:52:30;;;;;;;;;;;;;;;18.84;56.54;100669.94;7391579;19;1630;-41
2023/12/12 11:54:59;;;;;;;;;;;;;;;19.20;55.54;100662.25;7389833;19;1859;-41
2023/12/12 11:57:31;;;;;;;;;;;;;;;19.25;55.52;100653.78;7391186;19;1508;-41
2023/12/12 12:00:04;;;;;;;;;;;;;;;19.23;55.58;100669.16;7392398;19;1786;-41
2023/12/12 12:02:33;;;;;;;;;;;;;;;19.24;55.47;100657.47;7392524;19;1576;-41
2023/12/12 12:05:01;;;;;;;;;;;;;;;19.15;55.94;100661.81;7392521;19;1494;-41
2023/12/12 12:07:30;;;;;;;;;;;;;;;18.68;56.91;100662.41;7392034;19;1282;-41
2023/12/12 12:09:58;;;;;;;;;;;;;;;18.47;57.07;100653.56;7393114;19;1128;-41
2023/12/12 12:12:26;;;;;;;;;;;;;;;18.27;57.88;100664.19;7390650;19;1417;-41
2023/12/12 12:14:55;;;;;;;;;;;;;;;18.11;58.18;100658.47;7391467;19;1939;-41
2023/12/12 12:17:26;;;;;;;;;;;;;;;18.25;58.11;100670.66;7391764;19;1595;-41
2023/12/12 12:19:57;;;;;;;;;;;;;;;18.87;56.63;100666.97;7389660;19;1391;-41
2023/12/12 12:22:26;;;;;;;;;;;;;;;19.16;55.89;100658.16;7391346;19;1545;-41
2023/12/12 12:24:54;;;;;;;;;;;;;;;19.01;56.32;100646.97;7391771;19;1449;-41
2023/12/12 12:27:22;;;;;;;;;;;;;;;18.63;56.86;100664.63;7393141;19;1104;-41
2023/12/12 12:30:00;;;;;;;;;;;;;;;18.36;57.79;100662.53;7390374;19;1822;-41
2023/12/12 12:32:32;;;;;;;;;;;;;;;18.15;57.89;100662.56;7391031;19;1347;-41
2023/12/12 12:35:10;;;;;;;;;;;;;;;18.15;58.21;100653.72;7389778;19;1881;-41
2023/12/12 12:37:40;;;;;;;;;;;;;;;18.52;57.36;100651.31;7380999;19;1450;-41
2023/12/12 12:40:10;;;;;;;;;;;;;;;18.96;56.31;100654.59;7390778;19;1040;-41
2023/12/12 12:42:39;;;;;;;;;;;;;;;19.27;55.69;100658.00;7391005;19;1804;-41
2023/12/12 12:45:09;;;;;;;;;;;;;;;18.82;56.44;100658.53;7391615;19;1416;-41
2023/12/12 12:47:39;;;;;;;;;;;;;;;18.47;57.58;100664.28;7390625;19;1900;-41
2023/12/12 12:50:08;;;;;;;;;;;;;;;18.18;57.94;100658.78;7390979;19;1147;-41
2023/12/12 12:52:37;;;;;;;;;;;;;;;18.03;58.36;100666.31;7391178;19;1812;-41
2023/12/12 12:55:07;;;;;;;;;;;;;;;18.40;57.61;100669.34;7389840;19;1842;-41
2023/12/12 12:57:36;;;;;;;;;;;;;;;18.68;57.02;100657.03;7388722;19;1901;-41